createdAt,value
2023-05-09T00:00:38.319Z,10.93
2023-05-09T00:03:06.301Z,12.75
2023-05-09T00:05:34.130Z,7.40
2023-05-09T00:08:01.639Z,8.43
2023-05-09T00:10:29.301Z,11.95
2023-05-09T00:12:57.325Z,10.43
2023-05-09T00:15:26.142Z,11.77
2023-05-09T00:17:54.612Z,10.18
2023-05-09T00:20:22.459Z,10.68
2023-05-09T00:22:49.940Z,10.15
2023-05-09T00:25:17.638Z,11.02
2023-05-09T00:27:45.144Z,11.52
2023-05-09T00:30:13.175Z,14.07
2023-05-09T00:32:41.730Z,11.80
2023-05-09T00:35:10.294Z,8.43
2023-05-09T00:37:37.952Z,13.90
2023-05-09T00:40:07.619Z,8.98
2023-05-09T00:42:36.308Z,10.60
2023-05-09T00:45:04.095Z,8.13
2023-05-09T00:47:32.061Z,9.27
2023-05-09T00:49:59.946Z,9.50
2023-05-09T00:52:27.468Z,7.18
2023-05-09T00:54:56.290Z,10.80
2023-05-09T00:57:23.799Z,5.15
2023-05-09T00:59:51.602Z,10.70
2023-05-09T01:02:19.616Z,5.90
2023-05-09T01:04:47.416Z,7.70
2023-05-09T01:07:35.568Z,10.38
2023-05-09T01:10:34.313Z,7.20
2023-05-09T01:13:14.535Z,7.57
2023-05-09T01:16:01.692Z,6.25
2023-05-09T01:21:09.036Z,6.35
2023-05-09T01:23:46.340Z,5.07
2023-05-09T01:26:21.812Z,5.60
2023-05-09T01:29:26.952Z,5.22
2023-05-09T01:31:56.777Z,5.65
2023-05-09T01:34:28.640Z,2.15
2023-05-09T01:37:00.953Z,3.15
2023-05-09T01:39:31.809Z,3.17
2023-05-09T01:42:02.889Z,4.05
2023-05-09T01:44:35.825Z,4.13
2023-05-09T01:47:04.476Z,3.58
2023-05-09T01:49:33.734Z,3.30
2023-05-09T01:52:08.391Z,2.42
2023-05-09T01:54:37.374Z,2.00
2023-05-09T01:57:07.794Z,3.85
2023-05-09T01:59:36.492Z,1.73
2023-05-09T02:02:04.876Z,4.05
2023-05-09T02:04:35.778Z,4.28
2023-05-09T02:07:05.733Z,3.70
2023-05-09T02:09:33.709Z,2.03
2023-05-09T02:12:01.318Z,6.07
2023-05-09T02:14:28.808Z,1.23
2023-05-09T02:16:56.346Z,4.75
2023-05-09T02:19:23.796Z,5.38
2023-05-09T02:21:51.276Z,4.47
2023-05-09T02:24:18.818Z,2.45
2023-05-09T02:26:46.570Z,3.40
2023-05-09T02:29:19.858Z,2.03
2023-05-09T02:31:49.114Z,1.17
2023-05-09T02:34:17.135Z,2.83
2023-05-09T02:36:45.115Z,3.17
2023-05-09T02:39:12.718Z,3.60
2023-05-09T02:41:40.208Z,2.60
2023-05-09T02:44:07.680Z,2.17
2023-05-09T02:46:35.234Z,2.42
2023-05-09T02:49:02.716Z,1.83
2023-05-09T02:51:30.260Z,1.50
2023-05-09T02:53:57.716Z,1.77
2023-05-09T02:56:25.336Z,1.52
2023-05-09T02:58:52.836Z,1.42
2023-05-09T03:01:21.052Z,0.70
2023-05-09T03:03:48.650Z,0.93
2023-05-09T03:06:17.216Z,0.65
2023-05-09T03:08:44.632Z,1.25
2023-05-09T03:11:13.237Z,2.75
2023-05-09T03:13:40.724Z,1.40
2023-05-09T03:16:08.331Z,1.83
2023-05-09T03:18:35.803Z,1.50
2023-05-09T03:21:03.409Z,2.22
2023-05-09T03:23:31.574Z,0.70
2023-05-09T03:25:59.168Z,1.25
2023-05-09T03:28:28.233Z,0.55
2023-05-09T03:30:59.361Z,0.65
2023-05-09T03:33:28.429Z,1.90
2023-05-09T03:35:56.353Z,1.30
2023-05-09T03:38:24.531Z,1.33
2023-05-09T03:40:54.033Z,0.88
2023-05-09T03:43:22.432Z,1.33
2023-05-09T03:45:49.796Z,0.82
2023-05-09T03:48:17.302Z,1.08
2023-05-09T03:50:51.382Z,0.77
2023-05-09T03:53:20.526Z,1.60
2023-05-09T03:55:49.220Z,0.82
2023-05-09T03:58:19.427Z,1.17
2023-05-09T04:00:47.630Z,1.10
2023-05-09T04:03:21.109Z,0.30
2023-05-09T04:05:50.802Z,1.55
2023-05-09T04:08:40.171Z,0.57
2023-05-09T04:11:08.442Z,1.30
2023-05-09T04:13:37.937Z,0.20
2023-05-09T04:16:13.336Z,0.30
2023-05-09T04:18:42.299Z,0.52
2023-05-09T04:21:09.858Z,0.63
2023-05-09T04:23:39.038Z,0.25
2023-05-09T04:26:07.528Z,1.17
2023-05-09T04:28:35.429Z,2.67
2023-05-09T04:31:03.209Z,0.43
2023-05-09T04:33:31.944Z,0.30
2023-05-09T04:36:03.101Z,1.50
2023-05-09T04:38:30.932Z,2.00
2023-05-09T04:40:58.672Z,4.45
2023-05-09T04:43:28.116Z,0.90
2023-05-09T04:45:55.777Z,0.80
2023-05-09T04:48:23.441Z,1.83
2023-05-09T04:50:50.925Z,0.70
2023-05-09T04:53:18.423Z,1.50
2023-05-09T04:55:47.758Z,2.58
2023-05-09T04:58:15.515Z,6.18
2023-05-09T05:00:43.488Z,1.13
2023-05-09T05:03:11.214Z,1.15
2023-05-09T05:05:40.759Z,1.00
2023-05-09T05:08:08.313Z,1.60
2023-05-09T05:10:39.072Z,3.22
2023-05-09T05:13:10.482Z,3.13
2023-05-09T05:15:42.550Z,1.70
2023-05-09T05:18:10.968Z,2.75
2023-05-09T05:20:41.730Z,1.02
2023-05-09T05:23:09.742Z,3.33
2023-05-09T05:25:37.184Z,4.25
2023-05-09T05:28:04.842Z,1.30
2023-05-09T05:30:34.329Z,2.63
2023-05-09T05:33:03.324Z,4.07
2023-05-09T05:35:30.931Z,2.03
2023-05-09T05:37:58.856Z,3.30
2023-05-09T05:40:26.844Z,2.28
2023-05-09T05:42:55.793Z,0.80
2023-05-09T05:45:24.182Z,2.63
2023-05-09T05:47:56.376Z,2.80
2023-05-09T05:50:24.947Z,1.42
2023-05-09T05:52:54.108Z,1.42
2023-05-09T05:55:21.895Z,3.97
2023-05-09T05:57:49.299Z,3.25
2023-05-09T06:00:17.678Z,2.65
2023-05-09T06:02:49.095Z,3.03
2023-05-09T06:05:28.182Z,3.85
2023-05-09T06:07:55.676Z,2.50
2023-05-09T06:10:23.172Z,3.65
2023-05-09T06:12:50.761Z,2.67
2023-05-09T06:15:18.356Z,2.90
2023-05-09T06:17:49.280Z,2.53
2023-05-09T06:20:16.872Z,2.08
2023-05-09T06:22:44.442Z,1.60
2023-05-09T06:25:12.483Z,2.55
2023-05-09T06:27:40.103Z,2.08
2023-05-09T06:30:23.929Z,6.10
2023-05-09T06:32:52.757Z,4.53
2023-05-09T06:35:20.501Z,2.83
2023-05-09T06:37:49.020Z,2.80
2023-05-09T06:40:17.316Z,4.78
2023-05-09T06:42:45.315Z,4.10
2023-05-09T06:45:13.386Z,2.92
2023-05-09T06:47:41.210Z,2.75
2023-05-09T06:50:09.122Z,3.63
2023-05-09T06:52:36.762Z,2.53
2023-05-09T06:55:04.699Z,3.60
2023-05-09T06:57:32.632Z,3.50
2023-05-09T07:00:00.257Z,3.17
2023-05-09T07:02:27.864Z,2.33
2023-05-09T07:04:55.471Z,3.80
2023-05-09T07:07:23.058Z,5.10
2023-05-09T07:09:52.907Z,6.43
2023-05-09T07:12:23.400Z,7.80
2023-05-09T07:14:52.391Z,4.20
2023-05-09T07:17:23.295Z,2.28
2023-05-09T07:19:52.255Z,3.63
2023-05-09T07:22:20.149Z,3.13
2023-05-09T07:24:47.949Z,2.78
2023-05-09T07:27:15.412Z,3.13
2023-05-09T07:29:42.887Z,4.90
2023-05-09T07:32:10.421Z,5.90
2023-05-09T07:34:37.975Z,3.70
2023-05-09T07:37:05.404Z,2.22
2023-05-09T07:39:32.876Z,3.75
2023-05-09T07:42:00.655Z,3.08
2023-05-09T07:44:28.349Z,3.38
2023-05-09T07:46:55.868Z,5.13
2023-05-09T07:49:24.647Z,3.42
2023-05-09T07:51:53.192Z,4.20
2023-05-09T07:54:21.568Z,4.07
2023-05-09T07:56:49.732Z,2.88
2023-05-09T07:59:18.681Z,3.63
2023-05-09T08:01:46.812Z,3.08
2023-05-09T08:04:15.034Z,3.60
2023-05-09T08:06:43.077Z,3.63
2023-05-09T08:09:11.089Z,3.15
2023-05-09T08:11:39.228Z,5.25
2023-05-09T08:14:07.493Z,3.03
2023-05-09T08:16:35.724Z,5.22
2023-05-09T08:19:03.736Z,6.30
2023-05-09T08:21:31.724Z,4.30
2023-05-09T08:23:59.920Z,6.43
2023-05-09T08:26:28.535Z,5.40
2023-05-09T08:28:56.751Z,6.07
2023-05-09T08:31:24.967Z,5.07
2023-05-09T08:33:53.703Z,4.00
2023-05-09T08:36:24.236Z,4.32
2023-05-09T08:38:54.165Z,5.03
2023-05-09T08:41:28.437Z,6.72
2023-05-09T08:43:57.438Z,5.30
2023-05-09T08:46:34.844Z,4.70
2023-05-09T08:49:07.656Z,4.80
2023-05-09T08:51:45.638Z,4.20
2023-05-09T08:54:14.691Z,3.47
2023-05-09T08:56:43.216Z,5.13
2023-05-09T08:59:11.528Z,6.60
2023-05-09T09:01:41.234Z,5.25
2023-05-09T09:04:10.030Z,8.35
2023-05-09T09:06:39.772Z,3.92
2023-05-09T09:09:09.595Z,4.88
2023-05-09T09:11:38.869Z,4.57
2023-05-09T09:14:12.985Z,4.57
2023-05-09T09:16:43.734Z,5.75
2023-05-09T09:19:13.730Z,6.82
2023-05-09T09:21:43.464Z,5.80
2023-05-09T09:24:13.527Z,4.47
2023-05-09T09:26:47.650Z,3.15
2023-05-09T09:29:15.927Z,4.10
2023-05-09T09:31:47.682Z,2.28
2023-05-09T09:34:21.475Z,3.50
2023-05-09T09:36:50.786Z,2.13
2023-05-09T09:39:18.806Z,3.88
2023-05-09T09:41:46.337Z,2.10
2023-05-09T09:44:19.094Z,3.47
2023-05-09T09:46:55.642Z,4.90
2023-05-09T09:49:25.092Z,7.25
2023-05-09T09:51:56.876Z,5.35
2023-05-09T09:54:28.515Z,2.88
2023-05-09T09:56:57.083Z,4.60
2023-05-09T09:59:26.797Z,6.32
2023-05-09T10:02:12.290Z,3.47
2023-05-09T10:04:42.893Z,5.28
2023-05-09T10:07:14.328Z,5.53
2023-05-09T10:09:44.023Z,5.93
2023-05-09T10:12:12.265Z,2.70
2023-05-09T10:14:42.438Z,3.85
2023-05-09T10:17:13.633Z,5.97
2023-05-09T10:19:45.970Z,3.38
2023-05-09T10:22:16.628Z,6.57
2023-05-09T10:25:05.732Z,4.88
2023-05-09T10:27:36.436Z,5.93
2023-05-09T10:30:07.253Z,3.92
2023-05-09T10:32:48.672Z,6.00
2023-05-09T10:35:17.949Z,3.90
2023-05-09T10:37:46.078Z,4.97
2023-05-09T10:40:15.765Z,4.53
2023-05-09T10:42:44.130Z,3.70
2023-05-09T10:45:13.031Z,4.57
2023-05-09T10:47:42.546Z,6.75
2023-05-09T10:50:14.826Z,4.40
2023-05-09T10:53:11.612Z,4.80
2023-05-09T10:55:55.614Z,3.75
2023-05-09T10:58:27.225Z,3.72
2023-05-09T11:00:59.603Z,3.55
2023-05-09T11:03:28.574Z,4.40
2023-05-09T11:05:58.531Z,2.90
2023-05-09T11:08:28.020Z,3.00
2023-05-09T11:10:57.581Z,4.78
2023-05-09T11:13:26.110Z,2.85
2023-05-09T11:15:59.974Z,2.83
2023-05-09T11:18:32.497Z,1.00
2023-05-09T11:21:07.114Z,2.72
2023-05-09T11:23:34.640Z,1.92
2023-05-09T11:26:08.740Z,3.72
2023-05-09T11:28:37.939Z,2.40
2023-05-09T11:31:17.028Z,2.40
2023-05-09T11:33:49.211Z,3.28
2023-05-09T11:36:30.163Z,2.08
2023-05-09T11:39:13.970Z,1.40
2023-05-09T11:41:47.236Z,6.78
2023-05-09T11:44:16.991Z,2.33
2023-05-09T11:46:45.804Z,2.42
2023-05-09T11:49:14.219Z,1.50
2023-05-09T11:51:41.806Z,1.25
2023-05-09T11:54:11.438Z,2.90
2023-05-09T11:56:41.309Z,1.98
2023-05-09T11:59:10.651Z,2.88
2023-05-09T12:01:38.858Z,2.83
2023-05-09T12:04:08.130Z,2.17
2023-05-09T12:06:37.204Z,4.90
2023-05-09T12:09:05.231Z,4.30
2023-05-09T12:11:32.765Z,2.53
2023-05-09T12:14:00.314Z,2.83
2023-05-09T12:16:27.711Z,2.75
2023-05-09T12:18:55.261Z,0.70
2023-05-09T12:21:22.875Z,4.32
2023-05-09T12:23:53.085Z,1.30
2023-05-09T12:26:22.773Z,1.13
2023-05-09T12:28:51.906Z,3.03
2023-05-09T12:31:19.643Z,1.85
2023-05-09T12:33:47.309Z,3.75
2023-05-09T12:36:16.368Z,2.40
2023-05-09T12:38:56.918Z,2.25
2023-05-09T12:43:55.218Z,1.63
2023-05-09T12:46:22.816Z,7.10
2023-05-09T12:48:50.489Z,1.30
2023-05-09T12:51:20.619Z,3.13
2023-05-09T12:53:48.553Z,3.80
2023-05-09T12:56:20.878Z,1.75
2023-05-09T12:58:52.953Z,3.80
2023-05-09T13:01:22.620Z,1.70
2023-05-09T13:04:00.408Z,1.40
2023-05-09T13:06:27.977Z,3.88
2023-05-09T13:09:00.375Z,4.80
2023-05-09T13:11:28.813Z,2.58
2023-05-09T13:13:56.371Z,3.50
2023-05-09T13:16:24.426Z,2.03
2023-05-09T13:18:52.024Z,2.28
2023-05-09T13:21:20.307Z,3.10
2023-05-09T13:23:50.170Z,1.17
2023-05-09T13:26:17.749Z,1.17
2023-05-09T13:28:45.227Z,1.70
2023-05-09T13:31:12.831Z,2.58
2023-05-09T13:33:40.443Z,1.38
2023-05-09T13:36:08.231Z,0.30
2023-05-09T13:38:38.975Z,0.73
2023-05-09T13:41:10.307Z,1.67
2023-05-09T13:43:39.745Z,1.23
2023-05-09T13:46:07.306Z,6.10
2023-05-09T13:48:34.952Z,0.28
2023-05-09T13:51:03.732Z,0.80
2023-05-09T13:53:31.548Z,2.08
2023-05-09T13:55:59.190Z,0.40
2023-05-09T13:58:26.751Z,0.40
2023-05-09T14:00:54.124Z,0.70
2023-05-09T14:03:21.597Z,1.25
2023-05-09T14:05:49.612Z,0.63
2023-05-09T14:08:17.348Z,0.70
2023-05-09T14:10:44.992Z,3.00
2023-05-09T14:13:12.835Z,0.68
2023-05-09T14:15:40.630Z,0.50
2023-05-09T14:18:08.428Z,0.47
2023-05-09T14:20:37.736Z,0.47
2023-05-09T14:23:05.244Z,0.50
2023-05-09T14:25:32.855Z,0.73
2023-05-09T14:28:00.368Z,0.55
2023-05-09T14:30:27.875Z,0.90
2023-05-09T14:32:55.361Z,1.30
2023-05-09T14:35:23.299Z,0.15
2023-05-09T14:37:51.186Z,1.30
2023-05-09T14:40:20.347Z,2.00
2023-05-09T14:42:48.624Z,0.68
2023-05-09T14:45:16.137Z,0.80
2023-05-09T14:47:43.999Z,1.00
2023-05-09T14:50:15.795Z,1.95
2023-05-09T14:52:44.335Z,0.93
2023-05-09T14:55:11.976Z,1.67
2023-05-09T14:57:39.738Z,1.75
2023-05-09T15:00:19.690Z,2.03
2023-05-09T15:02:48.694Z,3.28
2023-05-09T15:05:16.889Z,3.10
2023-05-09T15:07:44.423Z,4.82
2023-05-09T15:10:11.997Z,1.65
2023-05-09T15:12:39.497Z,3.10
2023-05-09T15:15:15.638Z,3.90
2023-05-09T15:17:46.447Z,2.92
2023-05-09T15:20:18.251Z,2.95
2023-05-09T15:22:47.375Z,3.70
2023-05-09T15:25:15.534Z,1.88
2023-05-09T15:27:43.045Z,4.30
2023-05-09T15:30:11.096Z,4.32
2023-05-09T15:32:41.253Z,3.45
2023-05-09T15:35:09.183Z,7.78
2023-05-09T15:37:36.846Z,3.05
2023-05-09T15:40:04.711Z,5.05
2023-05-09T15:42:32.170Z,4.38
2023-05-09T15:44:59.708Z,2.33
2023-05-09T15:47:27.588Z,4.55
2023-05-09T15:49:55.077Z,7.05
2023-05-09T15:52:22.524Z,8.57
2023-05-09T15:54:50.878Z,4.93
2023-05-09T15:57:18.458Z,2.10
2023-05-09T15:59:46.037Z,2.95
2023-05-09T16:02:13.562Z,4.97
2023-05-09T16:04:42.494Z,4.20
2023-05-09T16:07:10.048Z,4.93
2023-05-09T16:09:37.930Z,2.78
2023-05-09T16:12:05.908Z,8.30
2023-05-09T16:14:33.600Z,10.38
2023-05-09T16:17:02.609Z,16.02
2023-05-09T16:19:30.911Z,4.88
2023-05-09T16:21:58.682Z,5.85
2023-05-09T16:24:26.200Z,5.30
2023-05-09T16:26:53.800Z,6.15
2023-05-09T16:29:22.510Z,4.35
2023-05-09T16:31:50.097Z,14.23
2023-05-09T16:34:17.648Z,7.28
2023-05-09T16:36:46.540Z,3.40
2023-05-09T16:39:14.130Z,7.22
2023-05-09T16:41:41.626Z,6.00
2023-05-09T16:44:09.193Z,7.38
2023-05-09T16:46:36.652Z,8.07
2023-05-09T16:49:04.256Z,4.97
2023-05-09T16:51:31.963Z,5.28
2023-05-09T16:53:59.463Z,6.03
2023-05-09T16:56:27.350Z,6.32
2023-05-09T16:58:54.819Z,3.80
2023-05-09T17:01:22.384Z,8.27
2023-05-09T17:03:50.409Z,6.78
2023-05-09T17:06:18.671Z,7.68
2023-05-09T17:08:46.268Z,2.40
2023-05-09T17:11:13.837Z,5.38
2023-05-09T17:13:42.725Z,7.57
2023-05-09T17:16:10.605Z,9.48
2023-05-09T17:18:38.750Z,5.95
2023-05-09T17:21:06.991Z,4.85
2023-05-09T17:23:34.451Z,8.32
2023-05-09T17:26:02.681Z,12.05
2023-05-09T17:28:30.053Z,8.98
2023-05-09T17:30:59.177Z,10.20
2023-05-09T17:33:27.239Z,4.05
2023-05-09T17:35:55.135Z,7.07
2023-05-09T17:38:22.676Z,5.43
2023-05-09T17:40:50.207Z,7.40
2023-05-09T17:43:18.028Z,6.75
2023-05-09T17:45:46.410Z,5.80
2023-05-09T17:48:14.451Z,6.95
2023-05-09T17:50:43.392Z,7.85
2023-05-09T17:53:10.834Z,5.45
2023-05-09T17:55:38.624Z,9.45
2023-05-09T17:58:08.210Z,5.75
2023-05-09T18:00:35.859Z,9.25
2023-05-09T18:03:04.248Z,6.35
2023-05-09T18:05:32.113Z,4.32
2023-05-09T18:08:01.263Z,8.32
2023-05-09T18:10:29.126Z,5.72
2023-05-09T18:12:56.743Z,5.78
2023-05-09T18:15:26.215Z,5.43
2023-05-09T18:17:54.960Z,9.20
2023-05-09T18:20:22.564Z,3.00
2023-05-09T18:22:50.168Z,6.75
2023-05-09T18:25:17.777Z,2.92
2023-05-09T18:27:45.308Z,6.55
2023-05-09T18:30:13.290Z,2.70
2023-05-09T18:32:41.311Z,6.32
2023-05-09T18:35:09.466Z,2.22
2023-05-09T18:37:37.012Z,5.70
2023-05-09T18:40:05.594Z,6.55
2023-05-09T18:42:33.031Z,4.78
2023-05-09T18:45:01.030Z,7.53
2023-05-09T18:47:28.515Z,5.03
2023-05-09T18:49:55.952Z,3.45
2023-05-09T18:52:23.608Z,4.13
2023-05-09T18:54:51.256Z,8.88
2023-05-09T18:57:19.830Z,6.07
2023-05-09T18:59:47.371Z,2.95
2023-05-09T19:02:14.801Z,6.32
2023-05-09T19:04:42.508Z,3.78
2023-05-09T19:07:10.156Z,5.03
2023-05-09T19:09:37.730Z,4.60
2023-05-09T19:12:05.931Z,3.40
2023-05-09T19:14:33.411Z,7.85
2023-05-09T19:17:00.899Z,9.70
2023-05-09T19:19:28.593Z,3.42
2023-05-09T19:21:56.129Z,5.80
2023-05-09T19:24:23.817Z,7.75
2023-05-09T19:26:51.209Z,2.35
2023-05-09T19:29:18.923Z,3.55
2023-05-09T19:31:46.332Z,4.97
2023-05-09T19:34:13.936Z,12.68
2023-05-09T19:36:41.490Z,2.53
2023-05-09T19:39:09.237Z,2.28
2023-05-09T19:41:36.767Z,8.70
2023-05-09T19:44:04.403Z,8.20
2023-05-09T19:46:31.794Z,4.45
2023-05-09T19:48:59.399Z,4.47
2023-05-09T19:51:27.394Z,4.85
2023-05-09T19:53:55.016Z,5.72
2023-05-09T19:56:23.361Z,7.03
2023-05-09T19:58:50.899Z,4.57
2023-05-09T20:01:19.375Z,9.75
2023-05-09T20:03:50.384Z,4.45
2023-05-09T20:06:21.251Z,7.15
2023-05-09T20:08:51.480Z,4.63
2023-05-09T20:11:19.047Z,5.25
2023-05-09T20:13:46.560Z,7.28
2023-05-09T20:16:14.166Z,7.75
2023-05-09T20:18:41.604Z,5.32
2023-05-09T20:21:10.412Z,5.38
2023-05-09T20:23:39.671Z,4.20
2023-05-09T20:26:07.056Z,9.20
2023-05-09T20:28:34.507Z,10.85
2023-05-09T20:31:02.170Z,6.25
2023-05-09T20:33:30.099Z,7.07
2023-05-09T20:35:57.474Z,9.93
2023-05-09T20:38:25.035Z,7.25
2023-05-09T20:40:52.617Z,8.38
2023-05-09T20:43:20.645Z,8.32
2023-05-09T20:45:48.330Z,5.90
2023-05-09T20:48:15.864Z,5.57
2023-05-09T20:50:43.256Z,4.78
2023-05-09T20:53:10.776Z,6.15
2023-05-09T20:55:38.198Z,6.68
2023-05-09T20:58:05.792Z,4.30
2023-05-09T21:00:33.349Z,5.90
2023-05-09T21:03:01.192Z,5.10
2023-05-09T21:05:28.660Z,8.57
2023-05-09T21:07:56.426Z,6.68
2023-05-09T21:10:23.863Z,10.25
2023-05-09T21:12:51.520Z,6.93
2023-05-09T21:15:19.171Z,7.03
2023-05-09T21:17:46.823Z,7.72
2023-05-09T21:20:14.714Z,6.05
2023-05-09T21:22:42.598Z,4.55
2023-05-09T21:25:10.418Z,6.28
2023-05-09T21:27:38.141Z,8.75
2023-05-09T21:30:06.312Z,7.15
2023-05-09T21:32:33.870Z,5.75
2023-05-09T21:35:02.119Z,10.93
2023-05-09T21:37:29.773Z,6.68
2023-05-09T21:39:57.404Z,6.57
2023-05-09T21:42:24.932Z,5.50
2023-05-09T21:44:52.370Z,6.72
2023-05-09T21:47:20.369Z,6.40
2023-05-09T21:49:48.104Z,8.32
2023-05-09T21:52:16.536Z,4.20
2023-05-09T21:54:44.103Z,5.07
2023-05-09T21:57:11.844Z,8.93
2023-05-09T21:59:39.267Z,5.53
2023-05-09T22:02:06.881Z,8.18
2023-05-09T22:04:34.430Z,9.60
2023-05-09T22:07:01.993Z,10.52
2023-05-09T22:09:29.975Z,6.55
2023-05-09T22:11:57.459Z,10.18
2023-05-09T22:14:25.067Z,9.23
2023-05-09T22:16:52.689Z,12.75
2023-05-09T22:19:20.135Z,11.82
2023-05-09T22:21:49.118Z,15.05
2023-05-09T22:24:16.616Z,10.27
2023-05-09T22:26:44.192Z,8.77
2023-05-09T22:29:11.730Z,10.85
2023-05-09T22:31:39.357Z,12.73
2023-05-09T22:34:06.853Z,10.63
2023-05-09T22:36:34.463Z,10.93
2023-05-09T22:39:01.984Z,15.20
2023-05-09T22:41:29.449Z,9.55
2023-05-09T22:43:57.394Z,10.73
2023-05-09T22:46:24.911Z,10.70
2023-05-09T22:48:52.305Z,9.38
2023-05-09T22:51:19.748Z,10.55
2023-05-09T22:53:47.147Z,11.13
2023-05-09T22:56:14.715Z,9.07
2023-05-09T22:58:42.093Z,16.30
2023-05-09T23:01:09.657Z,9.82
2023-05-09T23:06:04.747Z,10.98
2023-05-09T23:08:33.217Z,9.88
2023-05-09T23:11:00.757Z,11.02
2023-05-09T23:13:28.487Z,10.07
2023-05-09T23:15:57.433Z,14.45
2023-05-09T23:18:25.797Z,7.88
2023-05-09T23:20:53.334Z,11.85
2023-05-09T23:23:20.893Z,11.20
2023-05-09T23:25:48.386Z,10.23
2023-05-09T23:28:15.859Z,12.30
2023-05-09T23:30:43.323Z,9.63
2023-05-09T23:33:10.697Z,12.32
2023-05-09T23:35:38.163Z,13.05
2023-05-09T23:38:05.635Z,10.55
2023-05-09T23:40:33.211Z,12.45
2023-05-09T23:43:00.749Z,8.40
2023-05-09T23:45:28.277Z,9.80
2023-05-09T23:47:57.248Z,15.57
2023-05-09T23:50:24.872Z,8.77
2023-05-09T23:52:52.383Z,11.13
2023-05-09T23:55:19.905Z,10.48
2023-05-09T23:57:47.513Z,10.63
